Time;durP1;ratioP1;P1;durP2;ratioP2;P2;SDS_P1;SDS_P2;PMS_P1;PMS_P2;Temp;Humidity;BMP_temperature;BMP_pressure;BME280_temperature;BME280_humidity;BME280_pressure;Samples;Min_cycle;Max_cycle;Signal;HPM_P1;HPM_P2
2024/01/20 00:00:26;;;;;;;11.52;2.47;;;;;;;4.83;87.60;100701.47;5044755;28;20752;-46
2024/01/20 00:02:53;;;;;;;5.75;1.00;;;;;;;4.86;87.77;100706.31;5043706;28;20120;-52
2024/01/20 00:05:21;;;;;;;7.45;0.80;;;;;;;4.90;87.67;100704.56;5041500;28;20049;-51
2024/01/20 00:07:48;;;;;;;3.22;1.20;;;;;;;4.92;87.78;100691.38;5045208;28;20041;-52
2024/01/20 00:10:16;;;;;;;6.53;2.38;;;;;;;4.94;87.86;100697.38;5039649;28;20068;-53
2024/01/20 00:12:43;;;;;;;9.73;1.63;;;;;;;4.97;87.98;100695.94;5044403;28;20044;-54
2024/01/20 00:15:11;;;;;;;7.97;1.13;;;;;;;4.98;87.69;100681.13;5037515;28;20047;-53
2024/01/20 00:17:40;;;;;;;8.68;1.20;;;;;;;4.99;88.33;100686.28;5042983;28;20056;-51
2024/01/20 00:20:09;;;;;;;6.32;3.65;;;;;;;4.98;88.17;100687.38;5039267;28;20049;-51
2024/01/20 00:22:37;;;;;;;5.97;2.40;;;;;;;5.02;88.29;100684.84;5040975;28;20048;-50
2024/01/20 00:25:05;;;;;;;7.95;1.30;;;;;;;5.02;88.34;100677.44;5046668;28;20410;-52
2024/01/20 00:27:33;;;;;;;6.68;1.05;;;;;;;5.06;88.46;100661.97;5047148;28;20048;-52
2024/01/20 00:30:03;;;;;;;9.38;1.45;;;;;;;5.09;88.39;100666.81;5026544;28;20047;-52
2024/01/20 00:32:31;;;;;;;2.72;1.40;;;;;;;5.14;88.66;100668.63;5048181;28;20052;-53
2024/01/20 00:34:59;;;;;;;6.43;1.00;;;;;;;5.15;88.38;100665.59;5037193;28;20045;-52
2024/01/20 00:37:36;;;;;;;5.07;1.20;;;;;;;5.17;88.55;100654.28;5029805;28;20049;-53
2024/01/20 00:40:05;;;;;;;8.60;2.55;;;;;;;5.17;88.32;100660.59;5041075;28;20049;-50
2024/01/20 00:42:33;;;;;;;6.20;2.08;;;;;;;5.21;88.66;100663.53;5046280;28;20053;-53
2024/01/20 00:45:01;;;;;;;6.45;1.10;;;;;;;5.23;88.86;100662.09;5044723;28;20041;-51
2024/01/20 00:47:28;;;;;;;5.07;1.20;;;;;;;5.27;88.93;100662.31;5047728;28;20071;-51
2024/01/20 00:49:55;;;;;;;6.30;1.10;;;;;;;5.28;89.09;100664.72;5047102;28;20056;-52
2024/01/20 00:52:23;;;;;;;5.32;1.63;;;;;;;5.28;89.01;100663.91;5047500;28;20471;-53
2024/01/20 00:54:51;;;;;;;5.80;1.45;;;;;;;5.30;89.31;100650.69;5047981;28;20052;-47
2024/01/20 00:57:18;;;;;;;14.63;3.00;;;;;;;5.30;89.12;100656.97;5046194;28;20056;-52
2024/01/20 00:59:46;;;;;;;4.22;1.42;;;;;;;5.31;89.10;100653.13;5036233;28;20045;-52
2024/01/20 01:02:16;;;;;;;3.05;1.13;;;;;;;5.34;89.19;100654.44;5047410;28;20466;-54
2024/01/20 01:04:45;;;;;;;3.28;0.95;;;;;;;5.36;89.50;100650.25;5047696;28;20135;-49
2024/01/20 01:07:12;;;;;;;5.70;1.55;;;;;;;5.38;89.40;100626.03;5047319;28;20053;-52
2024/01/20 01:09:40;;;;;;;2.60;1.27;;;;;;;5.42;89.65;100634.47;5047437;28;20057;-53
2024/01/20 01:12:07;;;;;;;3.83;1.02;;;;;;;5.44;89.57;100646.75;5046198;28;20574;-55
2024/01/20 01:14:35;;;;;;;6.07;1.20;;;;;;;5.44;89.70;100640.44;5027893;28;20499;-55
2024/01/20 01:17:03;;;;;;;6.07;1.05;;;;;;;5.44;89.77;100646.75;5024485;28;20041;-50
2024/01/20 01:19:30;;;;;;;4.30;1.13;;;;;;;5.47;90.18;100645.31;5047567;28;20068;-55
2024/01/20 01:21:58;;;;;;;6.18;1.95;;;;;;;5.50;89.85;100634.53;5047397;28;20045;-53
2024/01/20 01:24:25;;;;;;;4.80;1.45;;;;;;;5.52;89.98;100636.94;5047435;28;20060;-53
2024/01/20 01:26:52;;;;;;;4.28;1.50;;;;;;;5.53;90.29;100639.38;5046827;28;20501;-50
2024/01/20 01:29:20;;;;;;;4.72;1.13;;;;;;;5.54;90.07;100632.75;5047355;28;20654;-49
2024/01/20 01:31:47;;;;;;;9.60;1.50;;;;;;;5.56;90.18;100635.19;5029501;28;20053;-51
2024/01/20 01:34:15;;;;;;;4.78;0.80;;;;;;;5.56;90.21;100628.91;5047484;28;20538;-55
2024/01/20 01:36:43;;;;;;;26.90;1.63;;;;;;;5.57;90.42;100623.06;5046685;28;20060;-55
2024/01/20 01:39:12;;;;;;;7.10;1.55;;;;;;;5.58;90.71;100624.72;5047584;28;20044;-50
2024/01/20 01:41:40;;;;;;;6.60;1.25;;;;;;;5.58;90.67;100623.91;5046946;28;20403;-49
2024/01/20 01:44:07;;;;;;;6.28;0.82;;;;;;;5.57;90.80;100612.09;5036427;28;20049;-51
2024/01/20 01:46:35;;;;;;;4.10;1.23;;;;;;;5.56;90.85;100604.19;5043475;28;20049;-54
2024/01/20 01:49:04;;;;;;;5.68;1.20;;;;;;;5.56;90.92;100609.69;5045253;28;20049;-54
2024/01/20 01:51:32;;;;;;;7.05;1.35;;;;;;;5.54;90.92;100599.81;5045782;28;20037;-52
2024/01/20 01:54:01;;;;;;;12.02;1.13;;;;;;;5.56;91.20;100598.69;5045729;28;20056;-53
2024/01/20 01:56:32;;;;;;;4.55;0.98;;;;;;;5.58;91.42;100590.94;5045084;28;20045;-53
2024/01/20 01:58:59;;;;;;;6.55;1.48;;;;;;;5.57;91.24;100592.88;5042094;28;20053;-52
2024/01/20 02:01:27;;;;;;;7.30;2.00;;;;;;;5.58;91.60;100566.22;5046184;28;20080;-53
2024/01/20 02:03:54;;;;;;;6.60;0.93;;;;;;;5.58;91.37;100572.53;5048758;28;20123;-53
2024/01/20 02:06:22;;;;;;;9.15;2.50;;;;;;;5.56;91.53;100577.50;5049934;28;20048;-50
2024/01/20 02:08:49;;;;;;;11.65;1.13;;;;;;;5.56;91.74;100571.22;5047446;28;20045;-52
2024/01/20 02:11:18;;;;;;;5.70;1.27;;;;;;;5.58;91.96;100577.22;5050131;28;20049;-50
2024/01/20 02:13:45;;;;;;;10.48;1.85;;;;;;;5.59;91.82;100576.09;5049337;28;20053;-50
2024/01/20 02:16:12;;;;;;;5.20;1.52;;;;;;;5.58;91.98;100567.03;5048291;28;20450;-53
2024/01/20 02:18:40;;;;;;;8.63;1.30;;;;;;;5.60;92.05;100558.47;5049566;28;20049;-52
2024/01/20 02:21:07;;;;;;;8.55;1.13;;;;;;;5.60;92.10;100575.78;5049735;28;20052;-51
2024/01/20 02:23:38;;;;;;;8.57;2.72;;;;;;;5.60;92.30;100561.22;5047684;28;20919;-48
2024/01/20 02:26:06;;;;;;;5.57;1.20;;;;;;;5.62;92.40;100573.50;5048181;28;20516;-50
2024/01/20 02:28:33;;;;;;;6.07;1.50;;;;;;;5.66;92.55;100579.19;5046689;28;20056;-51
2024/01/20 02:31:00;;;;;;;13.60;1.42;;;;;;;5.67;92.52;100578.03;5048214;28;20037;-54
2024/01/20 02:33:28;;;;;;;5.90;1.50;;;;;;;5.69;92.57;100575.81;5045334;28;20542;-48
2024/01/20 02:35:56;;;;;;;8.20;1.42;;;;;;;5.70;92.61;100574.66;5050367;28;20499;-51
2024/01/20 02:38:23;;;;;;;7.90;1.92;;;;;;;5.71;92.62;100562.56;5049036;28;20045;-54
2024/01/20 02:40:50;;;;;;;4.85;1.20;;;;;;;5.71;92.62;100573.56;5049179;28;20060;-50
2024/01/20 02:43:18;;;;;;;8.02;1.75;;;;;;;5.70;93.01;100556.25;5049807;28;20507;-48
2024/01/20 02:45:45;;;;;;;6.63;1.20;;;;;;;5.70;93.57;100560.94;5030443;28;20036;-54
2024/01/20 02:48:12;;;;;;;9.65;1.30;;;;;;;5.69;93.35;100567.56;5049746;28;20049;-52
2024/01/20 02:50:42;;;;;;;7.13;1.73;;;;;;;5.67;93.41;100567.06;5042709;28;20053;-54
2024/01/20 02:53:10;;;;;;;6.65;2.00;;;;;;;5.64;93.70;100541.03;5027002;28;20053;-52
2024/01/20 02:55:37;;;;;;;8.38;0.90;;;;;;;5.63;93.97;100552.34;5049507;28;20053;-50
2024/01/20 02:58:05;;;;;;;6.05;1.65;;;;;;;5.59;94.19;100527.44;5049050;28;20515;-54
2024/01/20 03:00:32;;;;;;;10.95;1.23;;;;;;;5.58;94.41;100547.00;5027169;28;20041;-54
2024/01/20 03:02:59;;;;;;;6.60;1.50;;;;;;;5.56;94.79;100539.06;5047140;28;20048;-53
2024/01/20 03:05:27;;;;;;;5.38;1.92;;;;;;;5.53;94.85;100518.53;5046109;28;20045;-52
2024/01/20 03:07:54;;;;;;;8.50;3.90;;;;;;;5.52;94.90;100516.94;5048916;28;20626;-48
2024/01/20 03:10:23;;;;;;;5.15;1.65;;;;;;;5.51;95.02;100512.56;5046530;28;20055;-52
2024/01/20 03:12:50;;;;;;;5.03;1.65;;;;;;;5.50;95.37;100527.44;5042513;28;20046;-51
2024/01/20 03:15:17;;;;;;;6.45;0.85;;;;;;;5.50;95.72;100513.72;5026709;28;20068;-54
2024/01/20 03:17:45;;;;;;;7.50;1.83;;;;;;;5.50;95.91;100516.47;5046799;28;20087;-49
2024/01/20 03:20:12;;;;;;;9.70;1.15;;;;;;;5.52;96.29;100513.38;5048241;28;20071;-47
2024/01/20 03:22:39;;;;;;;4.57;0.88;;;;;;;5.52;96.54;100510.63;5043309;28;20459;-50
2024/01/20 03:25:07;;;;;;;3.80;1.33;;;;;;;5.53;96.87;100491.09;5048892;28;20048;-49
2024/01/20 03:27:35;;;;;;;9.07;1.63;;;;;;;5.54;97.02;100492.72;5030695;28;20049;-52
2024/01/20 03:30:02;;;;;;;9.55;1.60;;;;;;;5.56;96.61;100494.34;5048535;28;20049;-50
2024/01/20 03:32:30;;;;;;;7.97;1.45;;;;;;;5.57;97.05;100487.72;5046754;28;20041;-53
2024/01/20 03:34:57;;;;;;;13.73;2.25;;;;;;;5.58;97.55;100470.13;5047799;28;20049;-49
2024/01/20 03:37:25;;;;;;;14.25;2.75;;;;;;;5.60;97.47;100476.09;5042098;28;20056;-53
2024/01/20 03:39:52;;;;;;;10.27;1.70;;;;;;;5.60;97.63;100462.38;5047956;28;20037;-51
2024/01/20 03:42:19;;;;;;;5.68;1.92;;;;;;;5.63;98.11;100461.72;5007663;28;20060;-48
2024/01/20 03:44:46;;;;;;;7.53;2.63;;;;;;;5.65;98.22;100448.47;5048406;28;20045;-50
2024/01/20 03:47:14;;;;;;;10.95;1.95;;;;;;;5.66;97.94;100450.94;5046000;28;20045;-52
2024/01/20 03:49:41;;;;;;;8.88;2.25;;;;;;;5.66;98.01;100450.09;5046705;28;20049;-50
2024/01/20 03:52:09;;;;;;;10.82;2.00;;;;;;;5.65;98.58;100441.06;5047852;28;20044;-50
2024/01/20 03:54:36;;;;;;;16.77;2.63;;;;;;;5.65;98.76;100435.56;5048916;28;20052;-52
2024/01/20 03:57:03;;;;;;;12.10;3.45;;;;;;;5.66;98.95;100439.13;5047357;28;20057;-52
2024/01/20 03:59:31;;;;;;;9.15;2.33;;;;;;;5.66;99.59;100419.91;5048272;28;20056;-49
2024/01/20 04:01:58;;;;;;;14.10;2.55;;;;;;;5.68;99.59;100436.88;5047901;28;20420;-53
2024/01/20 04:04:27;;;;;;;9.98;1.55;;;;;;;5.70;99.68;100434.59;5048610;28;20049;-53
2024/01/20 04:06:54;;;;;;;5.40;1.63;;;;;;;5.71;99.74;100431.53;5047390;28;20045;-52
2024/01/20 04:09:21;;;;;;;9.05;1.60;;;;;;;5.72;99.70;100430.41;5042099;28;20073;-52
2024/01/20 04:11:49;;;;;;;9.82;1.73;;;;;;;5.74;100.00;100432.84;5013019;28;20459;-49
2024/01/20 04:14:16;;;;;;;11.85;2.85;;;;;;;5.74;100.00;100428.16;5046178;28;20055;-52
2024/01/20 04:16:44;;;;;;;7.60;1.58;;;;;;;5.75;100.00;100443.50;5047601;28;20546;-50
2024/01/20 04:19:11;;;;;;;14.45;2.40;;;;;;;5.75;100.00;100427.00;5040719;28;20049;-54
2024/01/20 04:21:39;;;;;;;8.30;1.48;;;;;;;5.73;100.00;100445.75;5048014;28;20040;-53
2024/01/20 04:24:07;;;;;;;9.02;1.70;;;;;;;5.73;100.00;100436.69;5029476;28;20041;-49
2024/01/20 04:26:34;;;;;;;9.65;2.30;;;;;;;5.71;100.00;100430.72;5045503;28;20526;-50
2024/01/20 04:29:02;;;;;;;10.15;1.95;;;;;;;5.67;100.00;100421.50;5043209;28;20049;-51
2024/01/20 04:31:29;;;;;;;3.95;1.10;;;;;;;5.67;100.00;100429.75;5045099;28;20498;-50
2024/01/20 04:33:57;;;;;;;8.65;2.55;;;;;;;5.66;100.00;100419.91;5046228;28;20380;-49
2024/01/20 04:36:24;;;;;;;7.53;1.52;;;;;;;5.66;100.00;100428.13;5030149;28;20507;-50
2024/01/20 04:38:52;;;;;;;20.88;2.97;;;;;;;5.67;100.00;100424.25;5040529;28;20499;-53
2024/01/20 04:41:19;;;;;;;4.68;1.40;;;;;;;5.66;100.00;100426.22;5047115;28;20119;-50
2024/01/20 04:43:47;;;;;;;10.93;2.58;;;;;;;5.66;100.00;100428.13;5039793;28;20052;-50
2024/01/20 04:46:14;;;;;;;7.32;1.52;;;;;;;5.65;100.00;100423.75;5046102;28;20470;-50
2024/01/20 04:48:41;;;;;;;10.27;1.77;;;;;;;5.65;100.00;100416.34;5046723;28;20041;-50
2024/01/20 04:51:09;;;;;;;5.00;1.20;;;;;;;5.65;100.00;100415.53;5029471;28;20521;-50
2024/01/20 04:53:36;;;;;;;6.68;1.17;;;;;;;5.63;100.00;100417.78;5047022;28;20052;-52
2024/01/20 04:56:05;;;;;;;6.10;1.15;;;;;;;5.63;100.00;100417.78;5046255;28;20037;-52
2024/01/20 04:58:32;;;;;;;3.70;1.10;;;;;;;5.60;100.00;100419.25;5040450;28;20425;-49
2024/01/20 05:00:59;;;;;;;4.60;1.50;;;;;;;5.60;100.00;100430.22;5044896;28;20052;-51
2024/01/20 05:03:27;;;;;;;3.92;0.63;;;;;;;5.60;100.00;100415.69;5047562;28;20048;-51
2024/01/20 05:05:54;;;;;;;5.72;1.70;;;;;;;5.59;100.00;100417.59;5046078;28;20052;-51
2024/01/20 05:08:22;;;;;;;4.30;0.80;;;;;;;5.60;100.00;100434.91;5029248;28;20411;-50
2024/01/20 05:10:49;;;;;;;3.90;0.80;;;;;;;5.58;100.00;100420.69;5046068;28;20053;-51
2024/01/20 05:13:16;;;;;;;5.05;0.90;;;;;;;5.56;100.00;100415.50;5047324;28;20388;-51
2024/01/20 05:15:44;;;;;;;12.98;1.77;;;;;;;5.54;100.00;100410.34;5045152;28;20037;-48
2024/01/20 05:18:11;;;;;;;3.80;0.95;;;;;;;5.54;100.00;100404.84;5035572;28;20052;-54
2024/01/20 05:20:39;;;;;;;5.47;1.90;;;;;;;5.53;100.00;100407.94;5045899;28;20060;-51
2024/01/20 05:23:06;;;;;;;4.50;0.90;;;;;;;5.53;100.00;100396.94;5046196;28;20067;-51
2024/01/20 05:25:33;;;;;;;6.70;2.85;;;;;;;5.52;100.00;100412.59;5045687;28;20052;-48
2024/01/20 05:28:00;;;;;;;2.22;1.00;;;;;;;5.52;100.00;100401.63;5046644;28;20056;-53
2024/01/20 05:30:28;;;;;;;5.07;1.35;;;;;;;5.52;100.00;100407.13;5045865;28;20067;-53
2024/01/20 05:32:55;;;;;;;5.78;0.80;;;;;;;5.54;100.00;100412.28;5025145;28;20056;-50
2024/01/20 05:35:23;;;;;;;5.35;1.60;;;;;;;5.56;100.00;100395.50;5046248;28;20398;-49
2024/01/20 05:37:50;;;;;;;5.13;1.48;;;;;;;5.57;100.00;100394.34;5044342;28;20628;-53
2024/01/20 05:40:17;;;;;;;16.00;4.20;;;;;;;5.58;100.00;100405.03;5046434;28;20041;-51
2024/01/20 05:42:45;;;;;;;3.80;0.77;;;;;;;5.60;100.00;100408.25;5045668;28;20799;-53
2024/01/20 05:45:14;;;;;;;4.13;0.68;;;;;;;5.64;100.00;100413.94;5046194;28;20053;-50
2024/01/20 05:47:41;;;;;;;7.53;1.27;;;;;;;5.65;100.00;100386.13;5046016;28;20052;-52
2024/01/20 05:50:09;;;;;;;4.15;1.05;;;;;;;5.68;100.00;100401.16;5039628;28;20040;-51
2024/01/20 05:52:37;;;;;;;4.57;3.10;;;;;;;5.69;100.00;100406.34;5046425;28;20140;-50
2024/01/20 05:55:05;;;;;;;2.00;0.73;;;;;;;5.70;100.00;100394.22;5046695;28;20041;-51
2024/01/20 05:57:32;;;;;;;5.80;0.98;;;;;;;5.71;100.00;100389.53;5045300;28;20679;-52
2024/01/20 06:00:00;;;;;;;9.18;1.98;;;;;;;5.71;100.00;100373.88;5046160;28;20037;-52
2024/01/20 06:02:27;;;;;;;4.80;1.00;;;;;;;5.74;100.00;100386.16;5045850;28;20498;-48
2024/01/20 06:04:54;;;;;;;7.72;1.00;;;;;;;5.76;100.00;100392.13;5045260;28;20539;-51
2024/01/20 06:07:22;;;;;;;5.05;1.25;;;;;;;5.79;100.00;100388.75;5045513;28;20057;-48
2024/01/20 06:09:49;;;;;;;2.65;0.75;;;;;;;5.80;100.00;100379.38;5045943;28;20061;-51
2024/01/20 06:12:16;;;;;;;14.38;2.15;;;;;;;5.80;100.00;100391.16;5046054;28;20045;-51
2024/01/20 06:14:44;;;;;;;8.45;1.10;;;;;;;5.82;100.00;100390.84;5046019;28;20040;-53
2024/01/20 06:17:11;;;;;;;9.35;1.48;;;;;;;5.86;100.00;100383.59;5044859;28;20531;-48
2024/01/20 06:19:38;;;;;;;4.72;1.13;;;;;;;5.91;100.00;100397.16;5046112;28;20045;-52
2024/01/20 06:22:06;;;;;;;7.30;1.73;;;;;;;5.90;100.00;100390.88;5028486;28;20046;-52
2024/01/20 06:24:33;;;;;;;6.63;1.35;;;;;;;5.93;100.00;100378.44;5036356;28;20045;-49
2024/01/20 06:27:01;;;;;;;13.20;3.10;;;;;;;5.96;100.00;100394.25;5044902;28;20049;-49
2024/01/20 06:29:28;;;;;;;7.95;2.03;;;;;;;6.01;100.00;100391.38;5046571;28;20048;-49
2024/01/20 06:31:56;;;;;;;6.28;1.40;;;;;;;6.08;100.00;100388.94;5046716;28;20099;-50
2024/01/20 06:34:24;;;;;;;4.25;2.42;;;;;;;6.12;100.00;100387.16;5045858;28;20068;-52
2024/01/20 06:36:53;;;;;;;9.45;1.35;;;;;;;6.13;100.00;100383.28;5045912;28;20103;-51
2024/01/20 06:39:23;;;;;;;10.65;1.30;;;;;;;6.17;100.00;100386.19;5046584;28;20060;-50
2024/01/20 06:41:50;;;;;;;7.40;1.42;;;;;;;6.17;100.00;100389.72;5046169;28;20048;-48
2024/01/20 06:44:18;;;;;;;8.02;1.80;;;;;;;6.19;100.00;100381.97;5045661;28;20522;-50
2024/01/20 06:46:46;;;;;;;10.20;1.27;;;;;;;6.20;100.00;100389.06;5045476;28;20592;-49
2024/01/20 06:49:14;;;;;;;15.07;1.75;;;;;;;6.22;100.00;100397.03;5047090;28;20053;-47
2024/01/20 06:51:43;;;;;;;11.30;1.38;;;;;;;6.25;100.00;100386.16;5049381;28;20045;-50
2024/01/20 06:54:10;;;;;;;10.57;2.40;;;;;;;6.25;100.00;100394.41;5050405;28;20049;-54
2024/01/20 06:56:37;;;;;;;9.25;2.00;;;;;;;6.27;100.00;100392.16;5043768;28;20059;-48
2024/01/20 06:59:05;;;;;;;6.30;1.60;;;;;;;6.28;100.00;100384.69;5009466;28;20042;-51
2024/01/20 07:01:32;;;;;;;7.47;1.40;;;;;;;6.29;100.00;100381.66;5042922;28;20049;-48
2024/01/20 07:03:59;;;;;;;5.65;1.33;;;;;;;6.31;100.00;100395.88;5049666;28;20061;-47
2024/01/20 07:06:27;;;;;;;6.40;1.23;;;;;;;6.32;100.00;100380.19;5048872;28;20048;-54
2024/01/20 07:08:55;;;;;;;10.98;1.75;;;;;;;6.32;100.00;100393.94;5049334;28;20495;-47
2024/01/20 07:11:25;;;;;;;7.30;1.02;;;;;;;6.33;100.00;100395.56;5049195;28;20045;-49
2024/01/20 07:13:53;;;;;;;5.75;0.98;;;;;;;6.34;100.00;100392.47;5048455;28;20045;-51
2024/01/20 07:16:21;;;;;;;5.57;1.02;;;;;;;6.37;100.00;100400.06;5048988;28;20068;-51
2024/01/20 07:18:48;;;;;;;3.50;1.10;;;;;;;6.37;100.00;100415.75;5048844;28;20047;-49
2024/01/20 07:21:18;;;;;;;8.73;1.20;;;;;;;6.37;100.00;100419.31;5049447;28;20049;-54
2024/01/20 07:23:46;;;;;;;5.70;1.05;;;;;;;6.39;100.00;100413.47;5048111;28;20064;-47
2024/01/20 07:26:16;;;;;;;4.22;1.10;;;;;;;6.42;100.00;100397.16;5031556;28;20075;-49
2024/01/20 07:28:44;;;;;;;6.53;1.85;;;;;;;6.42;100.00;100410.91;5048516;28;20053;-48
2024/01/20 07:31:12;;;;;;;4.82;1.00;;;;;;;6.43;100.00;100398.78;5049156;28;20037;-51
2024/01/20 07:33:41;;;;;;;7.38;1.15;;;;;;;6.44;100.00;100405.88;5049199;28;20500;-50
2024/01/20 07:36:09;;;;;;;12.07;2.38;;;;;;;6.44;100.00;100416.88;5049336;28;20260;-56
2024/01/20 07:38:36;;;;;;;8.65;1.20;;;;;;;6.44;100.00;100405.06;5030540;28;20860;-54
2024/01/20 07:41:04;;;;;;;5.43;1.60;;;;;;;6.42;100.00;100399.91;5048994;28;20060;-55
2024/01/20 07:43:31;;;;;;;5.35;1.27;;;;;;;6.43;100.00;100407.03;5043588;28;20060;-49
2024/01/20 07:45:59;;;;;;;8.73;1.30;;;;;;;6.43;100.00;100420.78;5048473;28;20045;-50
2024/01/20 07:48:27;;;;;;;9.50;1.40;;;;;;;6.42;100.00;100402.66;5045453;28;20056;-53
2024/01/20 07:50:55;;;;;;;2.05;0.80;;;;;;;6.43;100.00;100397.97;5048127;28;20040;-50
2024/01/20 07:53:22;;;;;;;7.68;1.67;;;;;;;6.44;100.00;100397.63;5048094;28;20054;-49
2024/01/20 07:55:49;;;;;;;2.88;1.05;;;;;;;6.47;100.00;100416.22;5048872;28;20045;-52
2024/01/20 07:58:17;;;;;;;14.30;2.17;;;;;;;6.51;100.00;100428.19;5048641;28;20471;-47
2024/01/20 08:00:44;;;;;;;9.15;1.23;;;;;;;6.53;100.00;100425.94;5048042;28;20044;-50
2024/01/20 08:03:11;;;;;;;10.15;1.13;;;;;;;6.54;100.00;100427.53;5044686;28;20044;-47
2024/01/20 08:05:39;;;;;;;7.32;1.38;;;;;;;6.54;100.00;100424.78;5046710;28;20077;-53
2024/01/20 08:08:06;;;;;;;9.55;1.77;;;;;;;6.55;100.00;100412.66;5037037;28;20381;-48
2024/01/20 08:10:33;;;;;;;5.68;1.17;;;;;;;6.58;100.00;100425.75;5046902;28;20064;-53
2024/01/20 08:13:02;;;;;;;7.47;1.17;;;;;;;6.58;100.00;100425.75;5047807;28;20395;-50
2024/01/20 08:15:29;;;;;;;9.07;1.90;;;;;;;6.59;100.00;100424.59;5029205;28;20049;-55
2024/01/20 08:17:57;;;;;;;6.60;1.17;;;;;;;6.59;100.00;100432.84;5039867;28;20037;-50
2024/01/20 08:20:24;;;;;;;4.22;0.80;;;;;;;6.60;100.00;100431.75;5048371;28;20053;-49
2024/01/20 08:22:52;;;;;;;9.75;1.42;;;;;;;6.62;100.00;100426.72;5047541;28;20407;-52
2024/01/20 08:25:19;;;;;;;5.60;1.38;;;;;;;6.64;100.00;100427.22;5030053;28;20175;-53
2024/01/20 08:27:46;;;;;;;4.82;1.00;;;;;;;6.67;100.00;100437.53;5047643;28;20060;-48
2024/01/20 08:30:14;;;;;;;13.85;2.10;;;;;;;6.71;100.00;100440.44;5043152;28;20049;-49
2024/01/20 08:32:41;;;;;;;7.55;1.65;;;;;;;6.75;100.00;100431.22;5048316;28;20828;-49
2024/01/20 08:35:11;;;;;;;7.22;1.85;;;;;;;6.78;100.00;100431.72;5040854;28;20045;-50
2024/01/20 08:37:38;;;;;;;10.13;2.17;;;;;;;6.79;100.00;100431.38;5041426;28;20582;-49
2024/01/20 08:40:06;;;;;;;12.65;1.60;;;;;;;6.83;100.00;100426.03;5033387;28;20045;-49
2024/01/20 08:42:34;;;;;;;5.15;1.38;;;;;;;6.84;100.00;100413.88;5046409;28;20045;-50
2024/01/20 08:45:01;;;;;;;9.68;1.15;;;;;;;6.83;100.00;100412.28;5048148;28;20053;-53
2024/01/20 08:47:28;;;;;;;4.57;1.75;;;;;;;6.84;100.00;100414.69;5048004;28;20064;-47
2024/01/20 08:49:56;;;;;;;3.35;1.35;;;;;;;6.86;100.00;100414.38;5045326;28;20050;-50
2024/01/20 08:52:23;;;;;;;13.77;1.85;;;;;;;6.88;100.00;100425.84;5046195;28;20064;-48
2024/01/20 08:54:50;;;;;;;4.47;1.13;;;;;;;6.91;100.00;100414.19;5046874;28;20044;-54
2024/01/20 08:57:18;;;;;;;6.15;1.02;;;;;;;6.94;100.00;100413.50;5047582;28;20537;-47
2024/01/20 08:59:45;;;;;;;8.77;1.48;;;;;;;6.96;100.00;100408.50;5048098;28;20048;-51
2024/01/20 09:02:12;;;;;;;5.03;1.58;;;;;;;6.98;100.00;100400.72;5046452;28;20045;-52
2024/01/20 09:04:40;;;;;;;5.10;1.00;;;;;;;7.00;100.00;100401.19;5045169;28;20052;-53
2024/01/20 09:07:07;;;;;;;3.33;0.90;;;;;;;7.02;100.00;100409.91;5045692;28;20045;-51
2024/01/20 09:09:34;;;;;;;2.35;0.75;;;;;;;7.03;100.00;100411.56;5026968;28;20055;-50
2024/01/20 09:12:03;;;;;;;3.33;1.38;;;;;;;7.05;100.00;100392.75;5045452;28;20053;-52
2024/01/20 09:14:30;;;;;;;4.15;0.80;;;;;;;7.08;100.00;100398.41;5028262;28;20049;-54
2024/01/20 09:16:59;;;;;;;7.65;1.27;;;;;;;7.09;100.00;100382.72;5028787;28;20049;-51
2024/01/20 09:19:26;;;;;;;6.05;0.90;;;;;;;7.11;100.00;100394.19;5045219;28;20056;-52
2024/01/20 09:21:54;;;;;;;6.18;1.17;;;;;;;7.12;100.00;100388.34;5046915;28;20052;-48
2024/01/20 09:24:21;;;;;;;9.85;1.35;;;;;;;7.14;100.00;100396.28;5047975;28;20053;-52
2024/01/20 09:26:48;;;;;;;4.40;1.02;;;;;;;7.15;100.00;100397.88;5028614;28;20037;-50
2024/01/20 09:29:15;;;;;;;5.63;1.20;;;;;;;7.17;100.00;100398.38;5047028;28;20060;-55
2024/01/20 09:31:43;;;;;;;5.90;1.23;;;;;;;7.20;100.00;100392.22;5047083;28;20057;-50
2024/01/20 09:34:10;;;;;;;2.50;0.90;;;;;;;7.20;100.00;100393.00;5047255;28;20041;-53
2024/01/20 09:36:38;;;;;;;3.58;1.17;;;;;;;7.25;100.00;100397.53;5034037;28;20137;-51
2024/01/20 09:39:05;;;;;;;3.83;1.10;;;;;;;7.27;100.00;100403.50;5046709;28;20056;-51
2024/01/20 09:41:33;;;;;;;3.00;0.90;;;;;;;7.29;100.00;100396.53;5046251;28;20048;-47
2024/01/20 09:44:02;;;;;;;5.13;0.82;;;;;;;7.32;100.00;100397.81;5047181;28;20075;-53
2024/01/20 09:46:30;;;;;;;3.97;1.45;;;;;;;7.35;100.00;100405.41;5047153;28;20052;-53
2024/01/20 09:48:59;;;;;;;3.13;0.65;;;;;;;7.41;100.00;100400.53;5046915;28;20060;-56
2024/01/20 09:51:31;;;;;;;2.10;0.57;;;;;;;7.42;100.00;100397.44;5046007;28;20061;-48
2024/01/20 09:53:59;;;;;;;1.77;0.52;;;;;;;7.46;100.00;100403.09;5047087;28;20502;-51
2024/01/20 09:56:27;;;;;;;1.70;0.70;;;;;;;7.49;100.00;100396.94;5046670;28;20199;-51
2024/01/20 09:59:00;;;;;;;4.75;0.60;;;;;;;7.53;100.00;100423.47;5029485;28;20123;-49
2024/01/20 10:01:28;;;;;;;1.77;0.47;;;;;;;7.57;100.00;100399.59;5032749;28;20037;-49
2024/01/20 10:04:01;;;;;;;2.03;1.13;;;;;;;7.60;100.00;100404.44;5046915;28;20052;-49
2024/01/20 10:06:28;;;;;;;1.90;0.40;;;;;;;7.63;100.00;100405.72;5034776;28;20049;-50
2024/01/20 10:08:56;;;;;;;2.10;0.70;;;;;;;7.65;100.00;100401.50;5046207;28;20056;-49
2024/01/20 10:11:23;;;;;;;6.10;1.42;;;;;;;7.69;100.00;100407.16;5046418;28;20075;-51
2024/01/20 10:13:50;;;;;;;2.70;0.85;;;;;;;7.70;100.00;100426.13;5046420;28;20538;-50
2024/01/20 10:16:19;;;;;;;4.07;0.95;;;;;;;7.72;100.00;100396.28;5046970;28;20052;-50
2024/01/20 10:18:47;;;;;;;4.05;2.45;;;;;;;7.74;100.00;100404.22;5046439;28;20053;-54
2024/01/20 10:21:14;;;;;;;5.70;0.85;;;;;;;7.75;100.00;100395.63;5037591;28;20042;-52
2024/01/20 10:23:42;;;;;;;2.17;0.60;;;;;;;7.77;100.00;100396.09;5025664;28;20045;-49
2024/01/20 10:26:09;;;;;;;1.83;1.13;;;;;;;7.80;100.00;100387.16;5050724;28;20538;-49
2024/01/20 10:28:36;;;;;;;1.08;0.57;;;;;;;7.83;100.00;100380.97;5050807;28;20127;-54
2024/01/20 10:31:08;;;;;;;4.72;1.25;;;;;;;7.86;100.00;100382.25;5050684;28;20053;-51
2024/01/20 10:33:36;;;;;;;0.68;0.50;;;;;;;7.89;100.00;100390.63;5050210;28;20055;-52
2024/01/20 10:36:06;;;;;;;0.90;0.55;;;;;;;7.91;100.00;100391.13;5050812;28;20053;-53
2024/01/20 10:38:46;;;;;;;2.33;0.70;;;;;;;7.94;100.00;100368.38;5050351;28;20049;-52
2024/01/20 10:41:16;;;;;;;1.17;0.32;;;;;;;7.97;100.00;100373.22;5032460;28;20411;-49
2024/01/20 10:43:51;;;;;;;5.38;0.65;;;;;;;8.02;100.00;100366.72;5049546;28;20049;-50
2024/01/20 10:46:24;;;;;;;1.83;0.50;;;;;;;8.06;100.00;100372.34;5049064;28;20067;-51
2024/01/20 10:48:53;;;;;;;2.17;0.70;;;;;;;8.11;100.00;100372.13;5045793;28;20049;-50
2024/01/20 10:51:25;;;;;;;3.65;0.60;;;;;;;8.12;100.00;100371.00;5046533;28;20049;-49
2024/01/20 10:53:55;;;;;;;3.40;1.10;;;;;;;8.15;100.00;100378.59;5046555;28;20053;-49
2024/01/20 10:56:24;;;;;;;1.75;0.60;;;;;;;8.16;100.00;100361.72;5043793;28;20791;-46
2024/01/20 10:59:09;;;;;;;6.53;1.33;;;;;;;8.20;100.00;100367.38;5036022;28;20045;-54
2024/01/20 11:01:38;;;;;;;2.42;0.85;;;;;;;8.21;100.00;100369.78;5018616;28;20060;-49
2024/01/20 11:04:08;;;;;;;4.40;0.60;;;;;;;8.21;100.00;100368.97;5049305;28;20063;-51
2024/01/20 11:06:36;;;;;;;3.22;0.70;;;;;;;8.19;100.00;100369.31;5049993;28;20045;-50
2024/01/20 11:09:04;;;;;;;2.15;0.70;;;;;;;8.20;100.00;100345.31;5045420;28;20057;-52
2024/01/20 11:11:35;;;;;;;1.17;0.52;;;;;;;8.21;100.00;100341.38;5049467;28;20045;-48
2024/01/20 11:14:03;;;;;;;1.53;0.60;;;;;;;8.23;100.00;100342.69;5032946;28;20076;-53
2024/01/20 11:16:32;;;;;;;2.75;0.45;;;;;;;8.23;100.00;100344.63;5048203;28;20088;-53
2024/01/20 11:19:11;;;;;;;1.83;0.68;;;;;;;8.26;100.00;100343.97;5045074;28;20407;-50
2024/01/20 11:21:39;;;;;;;3.08;0.40;;;;;;;8.27;100.00;100335.38;5045204;28;20050;-51
2024/01/20 11:24:07;;;;;;;4.40;0.93;;;;;;;8.31;100.00;100341.00;5043943;28;20041;-51
2024/01/20 11:26:36;;;;;;;2.25;0.57;;;;;;;8.34;100.00;100338.38;5014604;28;20049;-52
2024/01/20 11:29:05;;;;;;;3.50;1.55;;;;;;;8.37;100.00;100336.88;5048399;28;20062;-49